Time;durP1;ratioP1;P1;durP2;ratioP2;P2;SDS_P1;SDS_P2;PMS_P1;PMS_P2;Temp;Humidity;BMP_temperature;BMP_pressure;BME280_temperature;BME280_humidity;BME280_pressure;Samples;Min_cycle;Max_cycle;Signal;HPM_P1;HPM_P2
2022/03/26 00:00:28;;;;;;;;;61.33;48.00;;;;;12.56;86.97;102305.56;5067368;28;45473;-86
2022/03/26 00:02:54;;;;;;;;;61.00;44.33;;;;;12.52;85.88;102311.13;5064196;28;44777;-85
2022/03/26 00:05:19;;;;;;;;;56.33;44.33;;;;;12.48;87.58;102312.25;5061076;28;44839;-87
2022/03/26 00:07:45;;;;;;;;;63.33;46.67;;;;;12.44;86.50;102318.66;5059435;28;45114;-86
2022/03/26 00:10:12;;;;;;;;;55.33;44.00;;;;;12.40;86.49;102320.63;5043492;28;44916;-86
2022/03/26 00:12:39;;;;;;;;;57.33;45.67;;;;;12.36;87.18;102311.03;5037522;28;45508;-86
2022/03/26 00:15:05;;;;;;;;;64.33;48.00;;;;;12.33;87.53;102314.72;5038853;28;44797;-85
2022/03/26 00:17:32;;;;;;;;;61.33;46.67;;;;;12.31;87.68;102313.94;5038114;28;45443;-85
2022/03/26 00:19:57;;;;;;;;;64.00;46.00;;;;;12.27;88.85;102301.69;5037967;28;45453;-86
2022/03/26 00:22:23;;;;;;;;;55.00;43.33;;;;;12.25;87.72;102305.38;5041195;28;44823;-86
2022/03/26 00:24:49;;;;;;;;;60.00;46.00;;;;;12.23;87.92;102315.22;5041449;28;45474;-85
2022/03/26 00:27:16;;;;;;;;;62.67;44.67;;;;;12.15;89.84;102310.28;5042461;28;45302;-86
2022/03/26 00:29:42;;;;;;;;;59.33;46.00;;;;;12.15;89.10;102312.09;5040516;28;44841;-86
2022/03/26 00:32:07;;;;;;;;;62.33;47.00;;;;;12.12;88.78;102306.91;5038459;28;44820;-85
2022/03/26 00:34:33;;;;;;;;;61.67;49.00;;;;;12.08;90.58;102307.03;5039309;28;44825;-85
2022/03/26 00:36:59;;;;;;;;;58.00;44.00;;;;;12.03;90.99;102311.72;5049500;28;45304;-85
2022/03/26 00:39:26;;;;;;;;;63.33;48.33;;;;;11.99;86.03;102315.50;5060909;28;45390;-86
2022/03/26 00:41:51;;;;;;;;;60.33;48.00;;;;;11.97;88.42;102316.50;5061641;28;44746;-83
2022/03/26 00:44:20;;;;;;;;;58.00;46.00;;;;;11.91;91.67;102308.81;5063096;28;45229;-83
2022/03/26 00:46:46;;;;;;;;;53.00;41.67;;;;;11.86;91.96;102310.81;5059896;28;45303;-86
2022/03/26 00:49:13;;;;;;;;;56.67;46.67;;;;;11.82;91.85;102310.09;5061892;28;45363;-85
2022/03/26 00:51:39;;;;;;;;;63.33;48.00;;;;;11.78;92.24;102306.66;5067834;28;45348;-85
2022/03/26 00:54:05;;;;;;;;;57.67;45.33;;;;;11.76;92.60;102310.34;5065413;28;44876;-85
2022/03/26 00:56:30;;;;;;;;;65.33;51.00;;;;;11.71;93.67;102307.03;5066492;28;45367;-85
2022/03/26 00:58:56;;;;;;;;;64.33;51.00;;;;;11.66;92.19;102304.59;5064326;28;44786;-85
2022/03/26 01:01:21;;;;;;;;;59.00;46.33;;;;;11.64;95.55;102309.09;5062020;28;45419;-85
2022/03/26 01:03:47;;;;;;;;;58.00;46.33;;;;;11.62;91.12;102300.34;5062740;28;44884;-84
2022/03/26 01:06:14;;;;;;;;;61.67;48.33;;;;;11.59;93.67;102313.78;5061315;28;45370;-85
2022/03/26 01:08:39;;;;;;;;;58.33;44.67;;;;;11.55;93.97;102298.88;5060840;28;44697;-85
2022/03/26 01:11:05;;;;;;;;;59.33;48.67;;;;;11.51;94.51;102303.50;5041374;28;44774;-85
2022/03/26 01:13:31;;;;;;;;;56.67;40.00;;;;;11.48;95.10;102300.09;5043541;28;45470;-85
2022/03/26 01:15:57;;;;;;;;;59.67;45.00;;;;;11.42;93.45;102303.91;5044099;28;45267;-84
2022/03/26 01:18:23;;;;;;;;;65.67;47.00;;;;;11.41;94.92;102299.53;5050269;28;44815;-85
2022/03/26 01:20:48;;;;;;;;;65.33;48.33;;;;;11.36;96.75;102298.84;5042968;28;44737;-85
2022/03/26 01:23:14;;;;;;;;;57.00;42.00;;;;;11.32;93.75;102305.28;5044638;28;44770;-85
2022/03/26 01:25:39;;;;;;;;;58.00;46.33;;;;;11.30;98.87;102302.66;5042909;28;46642;-84
2022/03/26 01:28:05;;;;;;;;;67.00;50.67;;;;;11.31;94.98;102300.84;5042544;28;44892;-85
2022/03/26 01:30:30;;;;;;;;;64.00;47.00;;;;;11.28;96.47;102293.03;5043575;28;44804;-84
2022/03/26 01:32:55;;;;;;;;;58.00;44.67;;;;;11.26;98.79;102295.75;5042204;28;44823;-84
2022/03/26 01:35:21;;;;;;;;;50.67;42.33;;;;;11.18;100.00;102292.56;5039931;28;45035;-84
2022/03/26 01:37:48;;;;;;;;;66.00;49.00;;;;;11.18;92.05;102300.56;5039412;28;44913;-85
2022/03/26 01:40:13;;;;;;;;;58.67;46.33;;;;;11.18;96.46;102287.25;5037664;28;45298;-83
2022/03/26 01:42:41;;;;;;;;;69.67;51.33;;;;;11.15;97.20;102287.38;5040347;28;45347;-84
2022/03/26 01:45:13;;;;;;;;;60.33;46.67;;;;;11.10;100.00;102291.19;5051109;28;45177;-83
2022/03/26 01:47:39;;;;;;;;;63.00;47.00;;;;;11.09;100.00;102286.81;5047792;28;45145;-84
2022/03/26 01:50:05;;;;;;;;;65.00;50.00;;;;;11.05;97.54;102286.06;5041460;28;44796;-85
2022/03/26 01:52:31;;;;;;;;;62.33;48.33;;;;;11.03;92.79;102282.63;5039280;28;45430;-85
2022/03/26 01:54:57;;;;;;;;;56.00;43.33;;;;;11.03;99.53;102274.66;5039283;28;45505;-85
2022/03/26 01:57:24;;;;;;;;;64.33;51.00;;;;;11.03;97.56;102282.63;5040248;28;44903;-84
2022/03/26 01:59:50;;;;;;;;;56.00;44.33;;;;;11.00;98.84;102274.78;5040013;28;45249;-84
2022/03/26 02:02:16;;;;;;;;;59.00;48.00;;;;;10.97;100.00;102282.88;5039780;28;45490;-84
2022/03/26 02:04:42;;;;;;;;;57.33;46.00;;;;;10.93;98.96;102271.53;5039532;28;45139;-84
2022/03/26 02:07:07;;;;;;;;;57.00;44.67;;;;;10.89;100.00;102277.91;5040190;28;44800;-84
2022/03/26 02:09:35;;;;;;;;;65.00;49.00;;;;;10.84;100.00;102269.28;5046005;28;44825;-85
2022/03/26 02:12:01;;;;;;;;;57.33;43.33;;;;;10.81;100.00;102272.91;5065575;28;45484;-84
2022/03/26 02:14:27;;;;;;;;;63.00;48.67;;;;;10.80;99.45;102268.53;5071228;28;45308;-84
2022/03/26 02:16:52;;;;;;;;;65.33;47.67;;;;;10.76;100.00;102269.59;5064870;28;44881;-83
2022/03/26 02:19:19;;;;;;;;;62.00;47.67;;;;;10.74;99.34;102271.47;5061756;28;44885;-85
2022/03/26 02:21:47;;;;;;;;;58.33;45.00;;;;;10.73;100.00;102261.75;5062649;28;44917;-83
2022/03/26 02:24:13;;;;;;;;;61.00;45.67;;;;;10.72;100.00;102267.97;5062625;28;45324;-85
2022/03/26 02:26:39;;;;;;;;;61.67;47.00;;;;;10.70;99.18;102266.34;5061352;28;45305;-84
2022/03/26 02:29:08;;;;;;;;;63.33;47.67;;;;;10.69;99.68;102275.25;5065492;28;44841;-85
2022/03/26 02:31:34;;;;;;;;;55.33;41.00;;;;;10.68;98.11;102278.81;5066189;28;45396;-85
2022/03/26 02:34:00;;;;;;;;;62.00;51.67;;;;;10.64;100.00;102275.44;5060657;28;46093;-85
2022/03/26 02:36:25;;;;;;;;;65.33;51.33;;;;;10.62;98.41;102276.41;5092996;27;45476;-85
2022/03/26 02:38:51;;;;;;;;;63.00;50.00;;;;;10.57;100.00;102268.66;5094510;27;45304;-85
2022/03/26 02:41:16;;;;;;;;;58.33;47.33;;;;;10.51;97.19;102268.91;5097059;27;44853;-85
2022/03/26 02:43:42;;;;;;;;;64.33;49.00;;;;;10.48;100.00;102264.56;5063370;27;45391;-84
2022/03/26 02:46:07;;;;;;;;;63.00;48.00;;;;;10.46;100.00;102260.28;5058418;28;45498;-85
2022/03/26 02:48:34;;;;;;;;;61.33;46.00;;;;;10.42;100.00;102256.00;5060256;28;44840;-84
2022/03/26 02:51:00;;;;;;;;;56.33;45.33;;;;;10.40;98.12;102261.41;5059329;28;45455;-85
2022/03/26 02:53:25;;;;;;;;;63.33;48.33;;;;;10.40;100.00;102250.78;5060024;28;45265;-84
2022/03/26 02:55:52;;;;;;;;;58.67;46.67;;;;;10.36;100.00;102257.13;5061265;28;44690;-83
2022/03/26 02:58:18;;;;;;;;;54.00;42.67;;;;;10.33;100.00;102257.25;5062926;28;44782;-84
2022/03/26 03:00:44;;;;;;;;;64.33;48.33;;;;;10.30;100.00;102265.38;5058855;28;45365;-84
2022/03/26 03:03:10;;;;;;;;;61.33;45.33;;;;;10.27;100.00;102260.16;5058390;28;45375;-84
2022/03/26 03:05:35;;;;;;;;;62.67;49.00;;;;;10.25;100.00;102256.69;5064831;28;45369;-83
2022/03/26 03:08:02;;;;;;;;;62.00;47.67;;;;;10.26;100.00;102261.09;5066006;28;45430;-83
2022/03/26 03:10:28;;;;;;;;;64.00;49.33;;;;;10.20;100.00;102255.97;5059358;28;45203;-84
2022/03/26 03:12:54;;;;;;;;;64.67;48.67;;;;;10.18;100.00;102257.84;5039502;28;45446;-85
2022/03/26 03:15:20;;;;;;;;;59.67;44.00;;;;;10.15;100.00;102250.00;5039504;28;44737;-83
2022/03/26 03:17:47;;;;;;;;;60.33;47.33;;;;;10.11;100.00;102261.69;5038962;28;45316;-83
2022/03/26 03:20:14;;;;;;;;;64.33;49.00;;;;;10.10;100.00;102257.28;5037668;28;45470;-83
2022/03/26 03:22:41;;;;;;;;;53.00;40.67;;;;;10.10;100.00;102263.47;5036943;28;46824;-83
2022/03/26 03:25:08;;;;;;;;;63.67;48.67;;;;;10.08;100.00;102262.66;5038531;28;44834;-84
2022/03/26 03:27:34;;;;;;;;;65.33;48.33;;;;;10.07;100.00;102260.09;5038876;28;44792;-84
2022/03/26 03:30:00;;;;;;;;;59.33;44.00;;;;;10.04;100.00;102261.91;5046283;28;45324;-84
2022/03/26 03:32:26;;;;;;;;;57.00;43.00;;;;;10.01;100.00;102262.06;5044346;28;46620;-84
2022/03/26 03:34:52;;;;;;;;;62.33;48.33;;;;;9.99;100.00;102268.34;5044463;28;44761;-84
2022/03/26 03:37:18;;;;;;;;;60.33;43.33;;;;;9.98;100.00;102269.28;5045362;28;45415;-84
2022/03/26 03:39:43;;;;;;;;;60.33;43.67;;;;;9.93;100.00;102265.94;5056584;28;45494;-84
2022/03/26 03:42:09;;;;;;;;;56.67;43.67;;;;;9.89;100.00;102264.34;5059242;28;45520;-84
2022/03/26 03:44:35;;;;;;;;;63.33;47.67;;;;;9.87;100.00;102261.75;5059254;28;45384;-84
2022/03/26 03:47:00;;;;;;;;;59.33;44.33;;;;;9.84;100.00;102261.84;5058877;28;45510;-84
2022/03/26 03:49:26;;;;;;;;;63.67;48.00;;;;;9.81;100.00;102267.28;5058366;28;45345;-84
2022/03/26 03:51:53;;;;;;;;;61.00;47.33;;;;;9.80;100.00;102268.22;5057978;28;45406;-84
2022/03/26 03:54:18;;;;;;;;;55.67;40.33;;;;;9.77;100.00;102269.22;5063317;28;44801;-83
2022/03/26 03:56:45;;;;;;;;;57.00;45.00;;;;;9.75;100.00;102263.06;5064935;28;44780;-83
2022/03/26 03:59:12;;;;;;;;;56.67;45.33;;;;;9.71;100.00;102264.13;5057947;28;44798;-84
2022/03/26 04:01:38;;;;;;;;;56.67;43.33;;;;;9.69;100.00;102259.81;5058407;28;45435;-84
2022/03/26 04:04:03;;;;;;;;;56.00;46.00;;;;;9.68;100.00;102276.66;5058979;28;45319;-85
2022/03/26 04:06:28;;;;;;;;;61.67;48.00;;;;;9.65;100.00;102274.97;5067938;28;45233;-84
2022/03/26 04:08:54;;;;;;;;;59.67;43.67;;;;;9.64;100.00;102275.03;5068659;28;44765;-84
2022/03/26 04:11:21;;;;;;;;;57.33;44.67;;;;;9.59;100.00;102272.56;5059117;28;45341;-85
2022/03/26 04:13:46;;;;;;;;;58.67;45.67;;;;;9.60;100.00;102279.59;5057773;28;44781;-83
2022/03/26 04:16:13;;;;;;;;;57.33;45.67;;;;;9.59;100.00;102271.69;5056729;28;44808;-84
2022/03/26 04:18:38;;;;;;;;;60.33;45.67;;;;;9.56;100.00;102274.47;5057472;28;44837;-84
2022/03/26 04:21:04;;;;;;;;;57.00;46.33;;;;;9.52;100.00;102271.06;5057347;28;45222;-83
2022/03/26 04:23:30;;;;;;;;;54.67;42.67;;;;;9.48;100.00;102270.31;5057388;28;45314;-84
2022/03/26 04:25:56;;;;;;;;;56.67;43.67;;;;;9.47;100.00;102268.56;5057268;28;44662;-85
2022/03/26 04:28:21;;;;;;;;;56.33;44.33;;;;;9.44;100.00;102268.72;5057386;28;44889;-83
2022/03/26 04:30:47;;;;;;;;;61.33;45.33;;;;;9.43;100.00;102274.94;5057067;28;45314;-84
2022/03/26 04:33:12;;;;;;;;;54.67;44.33;;;;;9.41;100.00;102283.88;5061020;28;45366;-84
2022/03/26 04:35:38;;;;;;;;;56.33;43.33;;;;;9.39;100.00;102281.28;5063061;28;45356;-83
2022/03/26 04:38:04;;;;;;;;;59.00;44.67;;;;;9.37;100.00;102279.59;5060455;28;45296;-83
2022/03/26 04:40:29;;;;;;;;;58.67;44.00;;;;;9.34;100.00;102275.28;5058869;27;45171;-83
2022/03/26 04:42:56;;;;;;;;;54.67;44.33;;;;;9.29;100.00;102276.38;5057242;28;45445;-83
2022/03/26 04:45:23;;;;;;;;;58.67;44.33;;;;;9.29;100.00;102282.53;5060512;28;44637;-84
2022/03/26 04:47:48;;;;;;;;;58.33;45.00;;;;;9.27;100.00;102284.38;5061471;28;44799;-84
2022/03/26 04:50:14;;;;;;;;;59.00;46.33;;;;;9.25;100.00;102284.44;5059466;28;45352;-84
2022/03/26 04:52:39;;;;;;;;;63.67;50.67;;;;;9.25;100.00;102288.88;5057998;28;45253;-83
2022/03/26 04:55:10;;;;;;;;;56.33;43.33;;;;;9.23;100.00;102282.75;5058162;28;45329;-84
2022/03/26 04:57:43;;;;;;;;;54.67;42.67;;;;;9.24;100.00;102285.38;5057392;28;45431;-85
2022/03/26 05:00:11;;;;;;;;;59.33;47.00;;;;;9.27;100.00;102266.66;5057984;28;46420;-84
2022/03/26 05:02:39;;;;;;;;;61.67;48.33;;;;;9.30;100.00;102278.97;5061127;28;44799;-84
2022/03/26 05:05:08;;;;;;;;;61.33;45.33;;;;;9.34;100.00;102277.06;5067784;28;44716;-85
2022/03/26 05:07:46;;;;;;;;;59.00;43.33;;;;;9.31;100.00;102275.38;5062515;28;44946;-84
2022/03/26 05:10:12;;;;;;;;;63.67;48.00;;;;;9.27;100.00;102279.91;5061323;28;45390;-84
2022/03/26 05:12:38;;;;;;;;;51.33;41.67;;;;;9.28;100.00;102286.09;5058848;27;45305;-84
2022/03/26 05:15:04;;;;;;;;;57.33;43.67;;;;;9.29;100.00;102284.34;5090790;27;44786;-84
2022/03/26 05:17:29;;;;;;;;;62.33;48.00;;;;;9.30;100.00;102288.72;5057543;28;44877;-83
2022/03/26 05:19:54;;;;;;;;;62.67;47.33;;;;;9.30;100.00;102284.25;5058190;28;44921;-84
2022/03/26 05:22:20;;;;;;;;;66.33;47.00;;;;;9.34;100.00;102298.28;5059068;28;44741;-84
2022/03/26 05:24:45;;;;;;;;;58.00;43.00;;;;;9.30;100.00;102289.56;5061565;28;44611;-82
2022/03/26 05:27:12;;;;;;;;;55.00;42.33;;;;;9.30;100.00;102286.06;5063597;28;44966;-83
2022/03/26 05:29:38;;;;;;;;;51.33;41.33;;;;;9.29;100.00;102290.50;5063462;28;45098;-83
2022/03/26 05:32:06;;;;;;;;;54.67;42.00;;;;;9.27;100.00;102289.66;5066088;28;45302;-83
2022/03/26 05:34:31;;;;;;;;;58.33;44.67;;;;;9.23;100.00;102290.69;5072016;28;45289;-84
2022/03/26 05:36:57;;;;;;;;;61.33;45.67;;;;;9.23;100.00;102285.41;5067297;28;45617;-84
2022/03/26 05:39:22;;;;;;;;;57.33;45.67;;;;;9.23;100.00;102298.66;5061945;28;44993;-84
2022/03/26 05:41:48;;;;;;;;;53.33;40.67;;;;;9.23;100.00;102301.31;5045499;28;45305;-84
2022/03/26 05:44:13;;;;;;;;;60.67;46.33;;;;;9.26;100.00;102303.84;5039472;28;45257;-84
2022/03/26 05:46:39;;;;;;;;;53.33;41.00;;;;;9.26;100.00;102309.16;5041026;28;44889;-83
2022/03/26 05:49:04;;;;;;;;;58.67;44.00;;;;;9.27;100.00;102310.88;5040774;28;45376;-85
2022/03/26 05:51:30;;;;;;;;;64.00;46.00;;;;;9.27;100.00;102309.09;5041469;28;44820;-83
2022/03/26 05:53:55;;;;;;;;;61.33;46.33;;;;;9.33;100.00;102317.75;5043579;28;44835;-84
2022/03/26 05:56:21;;;;;;;;;42.67;38.33;;;;;9.38;100.00;102318.44;5040307;28;44897;-84
2022/03/26 05:58:46;;;;;;;;;56.00;44.67;;;;;9.35;100.00;102319.44;5042633;28;45521;-83
2022/03/26 06:01:12;;;;;;;;;51.00;41.67;;;;;9.41;100.00;102321.00;5043823;28;45462;-84
2022/03/26 06:03:37;;;;;;;;;56.67;42.67;;;;;9.44;100.00;102328.84;5048683;28;44808;-86
2022/03/26 06:06:02;;;;;;;;;56.67;44.33;;;;;9.47;100.00;102318.09;5040989;28;44784;-83
2022/03/26 06:08:28;;;;;;;;;55.00;43.33;;;;;9.53;100.00;102320.56;5040676;28;46313;-84
2022/03/26 06:10:53;;;;;;;;;55.67;43.67;;;;;9.55;100.00;102308.09;5042248;28;44757;-83
2022/03/26 06:13:18;;;;;;;;;52.00;42.00;;;;;9.61;100.00;102312.28;5043947;28;45196;-84
2022/03/26 06:15:45;;;;;;;;;59.33;46.33;;;;;9.69;100.00;102313.75;5050198;28;45834;-87
2022/03/26 06:18:12;;;;;;;;;50.67;42.33;;;;;9.75;100.00;102323.25;5051187;28;46103;-88
2022/03/26 06:20:37;;;;;;;;;52.33;42.67;;;;;9.81;100.00;102330.97;5052194;28;44709;-89
2022/03/26 06:23:03;;;;;;;;;56.67;45.33;;;;;9.92;100.00;102322.63;5048883;28;45208;-86
2022/03/26 06:25:28;;;;;;;;;54.00;42.00;;;;;10.01;100.00;102333.75;5045298;28;45620;-86
2022/03/26 06:27:55;;;;;;;;;55.67;41.33;;;;;10.09;100.00;102338.75;5062417;28;45243;-87
2022/03/26 06:30:20;;;;;;;;;57.33;45.33;;;;;10.16;100.00;102342.03;5066985;28;44648;-86
2022/03/26 06:32:46;;;;;;;;;58.33;43.33;;;;;10.23;100.00;102336.41;5065404;28;45026;-87
2022/03/26 06:35:11;;;;;;;;;58.33;43.67;;;;;10.32;100.00;102337.88;5062825;28;44811;-86
2022/03/26 06:37:37;;;;;;;;;58.67;45.33;;;;;10.34;100.00;102341.31;5057585;28;46677;-86
2022/03/26 06:40:03;;;;;;;;;54.67;45.00;;;;;10.47;100.00;102339.03;5057378;28;44765;-87
2022/03/26 06:42:29;;;;;;;;;56.33;43.00;;;;;10.50;100.00;102345.09;5045666;28;44750;-87
2022/03/26 06:44:59;;;;;;;;;58.33;45.67;;;;;10.50;100.00;102347.75;5047045;28;45336;-87
2022/03/26 06:47:28;;;;;;;;;54.33;45.33;;;;;10.52;100.00;102351.22;5045841;28;45436;-86
2022/03/26 06:49:54;;;;;;;;;59.00;46.33;;;;;10.57;100.00;102351.03;5044315;28;44876;-88
2022/03/26 06:52:22;;;;;;;;;66.00;47.00;;;;;10.59;100.00;102351.84;5041413;28;45400;-88
2022/03/26 06:54:47;;;;;;;;;61.00;46.33;;;;;10.62;100.00;102353.50;5042029;28;45346;-89
2022/03/26 06:57:13;;;;;;;;;56.33;44.33;;;;;10.67;100.00;102365.66;5042212;28;45083;-87
2022/03/26 06:59:38;;;;;;;;;60.33;46.67;;;;;10.71;100.00;102361.94;5044980;28;44811;-87
2022/03/26 07:02:04;;;;;;;;;49.67;38.33;;;;;10.80;99.65;102374.00;5048619;28;44899;-87
2022/03/26 07:04:30;;;;;;;;;58.33;47.00;;;;;10.80;100.00;102352.72;5051891;28;45287;-87
2022/03/26 07:06:55;;;;;;;;;52.33;44.33;;;;;10.84;99.21;102380.06;5047150;28;44910;-89
2022/03/26 07:09:23;;;;;;;;;67.00;52.00;;;;;10.79;100.00;102374.94;5047888;28;45209;-88
2022/03/26 07:11:49;;;;;;;;;58.00;44.33;;;;;10.81;100.00;102368.63;5050057;28;44868;-88
2022/03/26 07:14:14;;;;;;;;;48.33;40.00;;;;;10.86;98.96;102380.84;5047857;28;45214;-87
2022/03/26 07:16:39;;;;;;;;;57.00;45.67;;;;;10.87;96.49;102380.78;5042494;28;45306;-88
2022/03/26 07:19:08;;;;;;;;;50.33;42.00;;;;;10.93;98.26;102382.34;5044855;28;45440;-88
2022/03/26 07:21:34;;;;;;;;;52.00;42.00;;;;;11.02;97.97;102392.56;5045297;28;45273;-89
2022/03/26 07:23:59;;;;;;;;;58.33;45.33;;;;;11.02;97.60;102390.78;5044231;28;44741;-86
2022/03/26 07:26:25;;;;;;;;;58.33;46.00;;;;;11.04;97.77;102401.34;5041454;28;47129;-89
2022/03/26 07:28:55;;;;;;;;;57.33;44.00;;;;;11.11;96.52;102389.50;5044228;28;44740;-89
2022/03/26 07:31:22;;;;;;;;;59.67;47.33;;;;;11.05;96.94;102403.09;5044099;28;44786;-88
2022/03/26 07:33:48;;;;;;;;;50.67;40.33;;;;;11.05;96.39;102395.97;5047184;28;44862;-89
2022/03/26 07:36:13;;;;;;;;;58.33;45.33;;;;;11.16;95.88;102407.94;5046394;28;45257;-86
2022/03/26 07:38:39;;;;;;;;;62.00;46.00;;;;;11.25;95.76;102404.88;5042440;28;44714;-88
2022/03/26 07:41:07;;;;;;;;;56.33;44.67;;;;;11.35;96.04;102414.19;5042275;28;45863;-88
2022/03/26 07:43:38;;;;;;;;;55.33;46.00;;;;;11.42;96.06;102413.03;5058366;28;44941;-88
2022/03/26 07:46:14;;;;;;;;;54.67;44.33;;;;;11.56;95.04;102417.75;5070625;28;45213;-87
2022/03/26 07:48:44;;;;;;;;;62.33;48.33;;;;;11.63;94.98;102418.31;5070632;28;44680;-87
2022/03/26 07:51:09;;;;;;;;;53.33;45.00;;;;;11.56;94.22;102407.09;5066077;28;45502;-87
2022/03/26 07:53:35;;;;;;;;;57.00;47.00;;;;;11.60;92.80;102416.66;5070077;28;44853;-88
2022/03/26 07:56:00;;;;;;;;;55.00;43.33;;;;;11.65;93.88;102406.66;5067764;28;45534;-87
2022/03/26 07:58:51;;;;;;;;;;;;;;;;;;;;;
2022/03/26 08:01:42;;;;;;;;;57.67;47.00;;;;;11.77;92.49;102407.94;5075685;28;70705;-89
2022/03/26 08:04:49;;;;;;;;;46.33;36.00;;;;;11.71;92.35;102411.72;5066732;28;44930;-88
2022/03/26 08:07:14;;;;;;;;;56.33;42.00;;;;;11.89;92.41;102406.53;5065818;28;45257;-88
2022/03/26 08:09:39;;;;;;;;;58.00;46.33;;;;;12.09;90.42;102406.50;5040967;28;45228;-88
2022/03/26 08:12:05;;;;;;;;;51.67;41.00;;;;;12.04;89.53;102420.03;5041434;28;44625;-88
2022/03/26 08:14:34;;;;;;;;;53.33;43.00;;;;;12.11;89.77;102409.06;5059829;28;45280;-89
2022/03/26 08:17:00;;;;;;;;;40.33;32.67;;;;;12.17;88.98;102412.31;5042154;28;45035;-90
2022/03/26 08:19:28;;;;;;;;;45.33;37.00;;;;;12.33;88.60;102421.34;5059634;28;45251;-88
2022/03/26 08:21:54;;;;;;;;;59.00;45.00;;;;;12.46;87.50;102412.72;5058342;28;44707;-89
2022/03/26 08:24:19;;;;;;;;;50.33;41.00;;;;;12.61;86.78;102412.84;5060818;28;45224;-89
2022/03/26 08:26:45;;;;;;;;;52.67;42.00;;;;;12.77;86.20;102415.66;5059527;28;45213;-88
2022/03/26 08:29:10;;;;;;;;;51.33;40.67;;;;;12.89;84.99;102416.84;5058255;28;45299;-88
2022/03/26 08:31:36;;;;;;;;;55.00;44.67;;;;;13.06;84.12;102422.22;5059105;28;45293;-88
2022/03/26 08:34:02;;;;;;;;;52.67;43.00;;;;;13.20;83.97;102416.16;5065031;28;45377;-89
2022/03/26 08:36:27;;;;;;;;;52.33;41.00;;;;;13.40;83.52;102416.97;5068120;28;45390;-88
2022/03/26 08:38:53;;;;;;;;;53.00;43.00;;;;;13.47;82.61;102419.25;5071753;28;44698;-87
2022/03/26 08:41:21;;;;;;;;;46.67;36.00;;;;;13.58;80.64;102421.34;5065683;28;45414;-88
2022/03/26 08:43:50;;;;;;;;;44.00;34.67;;;;;13.73;79.04;102425.00;5065367;28;44960;-88
2022/03/26 08:46:16;;;;;;;;;51.67;44.33;;;;;13.80;78.01;102416.59;5068229;28;46132;-88
2022/03/26 08:48:45;;;;;;;;;55.00;40.33;;;;;13.84;77.87;102412.81;5056492;28;44888;-88
2022/03/26 08:51:17;;;;;;;;;55.00;44.33;;;;;13.94;77.26;102417.66;5072018;28;44766;-87
2022/03/26 08:53:43;;;;;;;;;58.67;43.67;;;;;14.03;76.28;102422.50;5072504;28;44847;-89
2022/03/26 08:56:09;;;;;;;;;45.00;40.00;;;;;14.08;75.17;102423.13;5071717;28;46117;-88
2022/03/26 08:58:36;;;;;;;;;54.33;43.67;;;;;14.18;76.69;102427.03;5068012;28;44737;-87
2022/03/26 09:01:07;;;;;;;;;61.00;46.67;;;;;14.40;75.23;102429.34;5067156;28;44728;-84
2022/03/26 09:03:32;;;;;;;;;65.33;47.67;;;;;14.55;74.33;102425.88;5062770;28;45475;-85
2022/03/26 09:05:58;;;;;;;;;57.67;41.67;;;;;14.77;73.50;102429.97;5063267;28;46518;-86
2022/03/26 09:08:24;;;;;;;;;61.00;48.00;;;;;14.89;74.51;102422.13;5065948;28;44772;-84
2022/03/26 09:10:49;;;;;;;;;62.67;47.33;;;;;14.98;73.13;102430.53;5068844;28;44828;-86
2022/03/26 09:13:15;;;;;;;;;49.67;40.33;;;;;15.00;70.26;102424.16;5063940;28;45598;-85
2022/03/26 09:15:40;;;;;;;;;48.33;37.67;;;;;14.99;69.53;102424.22;5052564;28;45421;-85
2022/03/26 09:18:06;;;;;;;;;59.67;41.67;;;;;15.08;71.16;102426.38;5059638;28;45268;-84
2022/03/26 09:20:32;;;;;;;;;63.00;48.00;;;;;15.23;69.61;102421.91;5066419;28;45294;-83
2022/03/26 09:22:58;;;;;;;;;54.00;41.33;;;;;15.33;68.82;102417.75;5062747;28;44706;-86
2022/03/26 09:25:24;;;;;;;;;53.33;39.67;;;;;15.33;68.40;102415.94;5058103;28;46003;-85
2022/03/26 09:27:50;;;;;;;;;48.33;37.00;;;;;15.35;71.31;102415.84;5041374;28;45267;-85
2022/03/26 09:30:16;;;;;;;;;28.33;20.67;;;;;15.43;69.33;102414.44;5043290;28;44655;-87
2022/03/26 09:32:44;;;;;;;;;48.67;40.67;;;;;15.55;68.43;102418.16;5045297;28;44846;-84
2022/03/26 09:35:10;;;;;;;;;52.67;41.33;;;;;15.74;68.65;102422.44;5049160;28;45517;-83
2022/03/26 09:37:36;;;;;;;;;50.67;38.33;;;;;15.85;68.89;102409.22;5066240;28;44731;-85
2022/03/26 09:40:04;;;;;;;;;57.33;43.33;;;;;15.86;64.94;102421.69;5066925;28;44749;-84
2022/03/26 09:42:31;;;;;;;;;59.67;40.67;;;;;15.96;65.98;102416.63;5065604;28;44860;-85
2022/03/26 09:44:58;;;;;;;;;57.67;43.33;;;;;16.09;65.02;102423.75;5062173;28;45166;-85
2022/03/26 09:47:23;;;;;;;;;57.33;44.33;;;;;16.16;64.30;102421.56;5065342;28;44840;-84
2022/03/26 09:49:49;;;;;;;;;57.33;46.00;;;;;16.25;64.33;102415.63;5061457;28;45452;-83
2022/03/26 09:52:16;;;;;;;;;45.33;35.33;;;;;16.30;62.98;102415.34;5060735;28;45208;-84
2022/03/26 09:54:42;;;;;;;;;52.00;39.33;;;;;16.39;63.28;102412.03;5057710;28;45048;-85
2022/03/26 09:57:08;;;;;;;;;55.67;44.67;;;;;16.52;63.22;102415.66;5055308;28;45313;-83
2022/03/26 09:59:34;;;;;;;;;60.33;46.00;;;;;16.64;62.57;102419.38;5057420;28;45262;-85
2022/03/26 10:02:01;;;;;;;;;54.33;38.33;;;;;16.78;62.38;102422.03;5057641;28;45289;-85
2022/03/26 10:04:37;;;;;;;;;55.67;39.33;;;;;16.80;61.14;102409.38;5055764;28;47018;-86
2022/03/26 10:07:04;;;;;;;;;44.33;27.00;;;;;16.80;61.30;102416.56;5060500;28;44928;-85
2022/03/26 10:09:40;;;;;;;;;52.33;42.00;;;;;16.82;59.38;102418.16;5060323;28;45303;-84
2022/03/26 10:12:08;;;;;;;;;57.33;43.33;;;;;16.82;59.43;102415.47;5059238;28;44887;-85
2022/03/26 10:14:43;;;;;;;;;64.33;49.33;;;;;16.84;60.09;102404.66;5061691;28;47322;-85
2022/03/26 10:17:11;;;;;;;;;51.67;41.00;;;;;16.93;58.61;102404.03;5064178;28;45320;-85
2022/03/26 10:19:40;;;;;;;;;55.00;41.67;;;;;17.07;57.98;102411.19;5047226;28;44761;-85
2022/03/26 10:22:12;;;;;;;;;42.00;38.00;;;;;17.18;58.54;102405.94;5041500;28;45380;-85
2022/03/26 10:24:43;;;;;;;;;50.67;42.33;;;;;17.28;56.60;102407.03;5043995;28;45080;-87
2022/03/26 10:27:11;;;;;;;;;45.67;34.00;;;;;17.29;59.59;102408.72;5058805;28;44823;-86
2022/03/26 10:29:51;;;;;;;;;52.33;37.33;;;;;17.26;58.57;102414.34;5064109;28;44812;-85
2022/03/26 10:32:49;;;;;;;;;58.00;44.00;;;;;17.30;57.72;102402.38;5060098;28;45269;-84
2022/03/26 10:35:23;;;;;;;;;50.33;39.67;;;;;17.35;57.25;102404.75;5061676;28;45019;-84
2022/03/26 10:37:51;;;;;;;;;53.67;40.67;;;;;17.44;56.40;102399.59;5058184;28;45853;-85
2022/03/26 10:40:17;;;;;;;;;58.00;44.33;;;;;17.52;54.54;102399.09;5060308;28;45324;-85
2022/03/26 10:42:42;;;;;;;;;59.67;45.00;;;;;17.54;54.32;102405.19;5062057;28;44847;-85
2022/03/26 10:45:13;;;;;;;;;55.00;43.33;;;;;17.61;53.81;102394.91;5064237;28;45321;-86
2022/03/26 10:47:39;;;;;;;;;54.67;39.67;;;;;17.60;54.98;102402.09;5065576;28;45161;-85
2022/03/26 10:50:05;;;;;;;;;57.00;40.67;;;;;17.66;54.07;102398.97;5067728;28;44751;-84
2022/03/26 10:52:31;;;;;;;;;58.00;42.00;;;;;17.81;52.99;102394.38;5061968;28;45163;-85
2022/03/26 10:54:56;;;;;;;;;51.67;37.00;;;;;18.06;52.29;102390.78;5062032;28;45124;-85
2022/03/26 10:57:24;;;;;;;;;55.00;39.00;;;;;18.22;50.69;102395.91;5061342;28;45507;-86
2022/03/26 10:59:51;;;;;;;;;49.00;39.33;;;;;18.26;50.45;102394.72;5061071;28;45495;-86
2022/03/26 11:02:18;;;;;;;;;54.33;41.67;;;;;18.31;50.72;102389.84;5063853;28;44763;-87
2022/03/26 11:04:43;;;;;;;;;38.67;32.67;;;;;18.29;47.56;102393.66;5063808;28;45250;-86
2022/03/26 11:07:11;;;;;;;;;52.00;40.67;;;;;18.28;46.82;102373.97;5062941;28;45182;-88